createdAt,value
2022-12-20T00:01:30.856Z,41.4
2022-12-20T00:06:33.369Z,39.7
2022-12-20T00:11:35.596Z,39
2022-12-20T00:16:37.664Z,41.7
2022-12-20T00:21:39.925Z,42.5
2022-12-20T00:26:42.278Z,40.9
2022-12-20T00:31:44.324Z,41.9
2022-12-20T00:36:46.632Z,41.2
2022-12-20T00:41:48.688Z,39.3
2022-12-20T00:46:50.925Z,41
2022-12-20T00:51:53.361Z,36.3
2022-12-20T00:56:55.407Z,61.2
2022-12-20T01:01:55.984Z,33.5
2022-12-20T01:06:59.136Z,32.3
2022-12-20T01:12:01.218Z,33.9
2022-12-20T01:17:03.397Z,31.1
2022-12-20T01:22:05.857Z,30.8
2022-12-20T01:27:07.976Z,30.7
2022-12-20T01:32:10.126Z,29.8
2022-12-20T01:37:12.806Z,27.2
2022-12-20T01:42:14.962Z,29.1
2022-12-20T01:47:17.189Z,29.6
2022-12-20T01:52:19.213Z,29.3
2022-12-20T01:57:21.381Z,27.7
2022-12-20T02:02:23.614Z,29.6
2022-12-20T02:07:26.382Z,27.1
2022-12-20T02:12:28.464Z,28
2022-12-20T02:17:30.501Z,26.7
2022-12-20T02:22:32.990Z,28.2
2022-12-20T02:27:36.250Z,25.9
2022-12-20T02:32:38.911Z,25.2
2022-12-20T02:37:40.897Z,25
2022-12-20T02:42:43.125Z,26.7
2022-12-20T02:47:45.285Z,25.8
2022-12-20T02:52:47.358Z,25.2
2022-12-20T02:57:53.343Z,24.4
2022-12-20T03:02:52.309Z,46.7
2022-12-20T03:07:53.056Z,23.5
2022-12-20T03:12:55.302Z,24.1
2022-12-20T03:17:57.314Z,23.5
2022-12-20T03:22:59.428Z,24
2022-12-20T03:28:02.038Z,26.2
2022-12-20T03:33:04.077Z,24.9
2022-12-20T03:38:06.172Z,25.7
2022-12-20T03:43:11.638Z,46.3
2022-12-20T03:48:12.106Z,25.1
2022-12-20T03:53:14.101Z,24.4
2022-12-20T03:58:16.322Z,24.6
2022-12-20T04:03:18.472Z,24.1
2022-12-20T04:08:21.047Z,22.8
2022-12-20T04:13:23.382Z,25
2022-12-20T04:18:26.069Z,25.6
2022-12-20T04:23:28.224Z,23.9
2022-12-20T04:28:30.268Z,24.8
2022-12-20T04:33:32.511Z,24.1
2022-12-20T04:38:34.522Z,23.5
2022-12-20T04:43:36.516Z,25.6
2022-12-20T04:48:56.010Z,22.7
2022-12-20T04:53:41.319Z,23.9
2022-12-20T04:58:43.398Z,24
2022-12-20T05:03:45.596Z,21.9
2022-12-20T05:08:47.977Z,24.2
2022-12-20T05:13:50.242Z,22.7
2022-12-20T05:18:52.285Z,42.2
2022-12-20T05:23:52.736Z,25.5
2022-12-20T05:28:54.861Z,24.1
2022-12-20T05:33:56.885Z,21.2
2022-12-20T05:39:03.854Z,23.7
2022-12-20T05:44:07.113Z,24
2022-12-20T05:49:09.367Z,23
2022-12-20T05:54:11.387Z,22.2
2022-12-20T05:59:13.455Z,22.3
2022-12-20T06:04:15.573Z,22.2
2022-12-20T06:09:18.059Z,26.4
2022-12-20T06:14:20.181Z,23.3
2022-12-20T06:19:22.191Z,23.8
2022-12-20T06:24:24.337Z,23
2022-12-20T06:29:26.495Z,23.7
2022-12-20T06:34:28.541Z,22.2
2022-12-20T06:39:30.725Z,24.2
2022-12-20T06:44:32.883Z,25.5
2022-12-20T06:49:34.916Z,22.7
2022-12-20T06:54:36.950Z,25
2022-12-20T06:59:39.156Z,21
2022-12-20T07:04:41.261Z,24.2
2022-12-20T07:09:43.349Z,22.2
2022-12-20T07:14:45.619Z,19.5
2022-12-20T07:19:50.921Z,22.4
2022-12-20T07:24:54.319Z,21.9
2022-12-20T07:29:56.456Z,19.2
2022-12-20T07:34:58.853Z,20.6
2022-12-20T07:40:01.462Z,21.1
2022-12-20T07:45:03.619Z,20
2022-12-20T07:50:06.002Z,18.2
2022-12-20T07:55:08.079Z,19.9
2022-12-20T08:00:10.175Z,17.7
2022-12-20T08:05:12.239Z,40.1
2022-12-20T08:10:14.519Z,18.3
2022-12-20T08:15:16.518Z,33.8
2022-12-20T08:20:16.973Z,18.2
2022-12-20T08:25:19.104Z,17.4
2022-12-20T08:30:21.196Z,17.5
2022-12-20T08:35:23.631Z,18.4
2022-12-20T08:40:25.685Z,18.1
2022-12-20T08:45:27.945Z,18.7
2022-12-20T08:50:30.353Z,17.1
2022-12-20T08:55:32.422Z,16.2
2022-12-20T09:00:34.595Z,16.7
2022-12-20T09:05:36.662Z,19.2
2022-12-20T09:10:38.802Z,18.4
2022-12-20T09:15:41.109Z,20.3
2022-12-20T09:20:43.443Z,18.3
2022-12-20T09:25:50.306Z,18
2022-12-20T09:30:46.406Z,17.8
2022-12-20T09:35:50.010Z,16.8
2022-12-20T09:40:50.972Z,16.6
2022-12-20T09:45:53.316Z,16.5
2022-12-20T09:50:56.362Z,15.7
2022-12-20T09:55:58.531Z,16.7
2022-12-20T10:01:00.840Z,15.3
2022-12-20T10:06:03.515Z,14.9
2022-12-20T10:11:15.280Z,26.9
2022-12-20T10:16:23.924Z,29.3
2022-12-20T10:21:32.550Z,30.3
2022-12-20T10:26:37.690Z,27.8
2022-12-20T10:31:41.955Z,29.1
2022-12-20T10:36:42.551Z,27.6
2022-12-20T10:41:51.095Z,32
2022-12-20T10:46:59.500Z,28.9
2022-12-20T10:52:08.334Z,28.1
2022-12-20T10:57:17.107Z,27.4
2022-12-20T11:02:17.588Z,17.1
2022-12-20T11:07:20.404Z,14.9
2022-12-20T11:12:22.470Z,15.9
2022-12-20T11:17:24.785Z,14.7
2022-12-20T11:22:26.851Z,14.4
2022-12-20T11:27:28.919Z,15.8
2022-12-20T11:32:30.868Z,14.7
2022-12-20T11:37:32.997Z,13.4
2022-12-20T11:42:35.497Z,25.6
2022-12-20T11:47:36.791Z,23.8
2022-12-20T11:52:37.524Z,25.2
2022-12-20T11:57:55.103Z,24.9
2022-12-20T12:02:38.381Z,26.3
2022-12-20T12:07:39.238Z,16.5
2022-12-20T12:12:41.474Z,16.8
2022-12-20T12:17:43.530Z,16.6
2022-12-20T12:22:45.560Z,17.3
2022-12-20T12:27:47.675Z,18.1
2022-12-20T12:32:49.845Z,18
2022-12-20T12:37:52.046Z,19.8
2022-12-20T12:42:54.795Z,17.9
2022-12-20T12:47:56.947Z,17.6
2022-12-20T12:52:59.311Z,17.8
2022-12-20T12:58:01.524Z,16.4
2022-12-20T13:03:03.859Z,15.9
2022-12-20T13:08:06.776Z,16.8
2022-12-20T13:13:08.861Z,16.3
2022-12-20T13:18:11.040Z,35
2022-12-20T13:23:13.610Z,15.4
2022-12-20T13:28:15.824Z,17.2
2022-12-20T13:33:18.632Z,17.1
2022-12-20T13:38:20.749Z,16.9
2022-12-20T13:43:23.145Z,56
2022-12-20T13:48:26.115Z,25.7
2022-12-20T13:53:28.938Z,21.4
2022-12-20T13:58:31.139Z,19.6
2022-12-20T14:03:33.499Z,19.6
2022-12-20T14:08:36.543Z,17.6
2022-12-20T14:13:38.639Z,18.4
2022-12-20T14:18:40.706Z,19.3
2022-12-20T14:23:43.573Z,19
2022-12-20T14:28:47.359Z,21.2
2022-12-20T14:33:49.883Z,20
2022-12-20T14:38:52.366Z,19.5
2022-12-20T14:43:54.740Z,20.7
2022-12-20T14:48:56.903Z,20.5
2022-12-20T14:54:00.107Z,21.4
2022-12-20T14:59:02.253Z,22.1
2022-12-20T15:04:04.376Z,19.8
2022-12-20T15:09:07.888Z,20.6
2022-12-20T15:14:10.110Z,21.5
2022-12-20T15:19:12.139Z,21.4
2022-12-20T15:24:14.244Z,20.1
2022-12-20T15:29:16.395Z,22.2
2022-12-20T15:34:18.694Z,20.6
2022-12-20T15:39:22.578Z,21.4
2022-12-20T15:44:24.845Z,19.7
2022-12-20T15:49:27.898Z,19.4
2022-12-20T15:54:30.345Z,19.2
2022-12-20T15:59:58.768Z,18.8
2022-12-20T16:04:35.301Z,17.5
2022-12-20T16:09:37.768Z,18.2
2022-12-20T16:14:40.583Z,19.3
2022-12-20T16:19:42.728Z,18.9
2022-12-20T16:24:45.114Z,19.2
2022-12-20T16:29:47.502Z,22.8
2022-12-20T16:34:49.716Z,24.1
2022-12-20T16:39:51.863Z,22.9
2022-12-20T16:44:54.215Z,25.3
2022-12-20T16:49:56.455Z,24.9
2022-12-20T16:54:58.643Z,23.8
2022-12-20T17:00:01.183Z,27
2022-12-20T17:05:04.622Z,27.2
2022-12-20T17:10:10.193Z,24.4
2022-12-20T17:15:12.682Z,29.6
2022-12-20T17:20:14.802Z,30.4
2022-12-20T17:25:17.425Z,33.8
2022-12-20T17:30:19.635Z,35.6
2022-12-20T17:35:21.786Z,33.1
2022-12-20T17:40:24.189Z,32.1
2022-12-20T17:45:27.085Z,29.6
2022-12-20T17:50:30.749Z,30.1
2022-12-20T17:55:34.525Z,29.5
2022-12-20T18:00:39.915Z,27.4
2022-12-20T18:05:45.586Z,28.8
2022-12-20T18:10:47.738Z,30.8
2022-12-20T18:15:49.896Z,29.8
2022-12-20T18:20:52.062Z,29.2
2022-12-20T18:25:54.695Z,30.4
2022-12-20T18:30:56.788Z,28.5
2022-12-20T18:36:00.139Z,33.2
2022-12-20T18:41:02.433Z,28.2
2022-12-20T18:46:04.570Z,32.3
2022-12-20T18:51:06.956Z,32.4
2022-12-20T18:56:09.290Z,35.4
2022-12-20T19:01:11.368Z,31.9
2022-12-20T19:06:13.709Z,31.1
2022-12-20T19:11:15.912Z,28.6
2022-12-20T19:16:18.073Z,26.7
2022-12-20T19:21:20.307Z,28
2022-12-20T19:26:22.351Z,28.5
2022-12-20T19:31:31.169Z,27.1
2022-12-20T19:36:33.903Z,26.2
2022-12-20T19:41:35.923Z,24.3
2022-12-20T19:46:38.174Z,25.2
2022-12-20T19:51:40.862Z,24.4
2022-12-20T19:56:45.865Z,25.5
2022-12-20T20:01:48.195Z,25.7
2022-12-20T20:06:52.001Z,24.6
2022-12-20T20:11:58.870Z,25.8
2022-12-20T20:17:01.809Z,26.3
2022-12-20T20:22:04.754Z,25.2
2022-12-20T20:27:06.821Z,29.9
2022-12-20T20:32:08.895Z,27.9
2022-12-20T20:37:11.488Z,27.9
2022-12-20T20:42:17.221Z,25.4
2022-12-20T20:47:14.975Z,26
2022-12-20T20:52:17.124Z,26.5
2022-12-20T20:57:19.267Z,24.6
2022-12-20T21:02:22.630Z,26.4
2022-12-20T21:07:26.316Z,28.5
2022-12-20T21:12:29.114Z,27.4
2022-12-20T21:17:31.159Z,38.2
2022-12-20T21:22:33.527Z,28.4
2022-12-20T21:27:35.675Z,30.9
2022-12-20T21:32:37.918Z,29.6
2022-12-20T21:37:40.162Z,28
2022-12-20T21:42:42.831Z,27.4
2022-12-20T21:47:45.241Z,31
2022-12-20T21:52:47.505Z,33.5
2022-12-20T21:57:49.667Z,31.5
2022-12-20T22:02:52.112Z,30.9
2022-12-20T22:07:55.066Z,30.2
2022-12-20T22:12:57.230Z,28.3
2022-12-20T22:17:59.422Z,29.1
2022-12-20T22:23:01.682Z,30.2
2022-12-20T22:28:04.952Z,25.4
2022-12-20T22:33:06.950Z,27.9
2022-12-20T22:38:08.963Z,26.2
2022-12-20T22:43:11.087Z,25.4
2022-12-20T22:48:13.151Z,24.8
2022-12-20T22:53:15.212Z,28.7
2022-12-20T22:58:17.700Z,25.1
2022-12-20T23:03:19.862Z,24.2
2022-12-20T23:08:22.729Z,24.2
2022-12-20T23:13:24.831Z,23.4
2022-12-20T23:18:26.927Z,24.3
2022-12-20T23:23:28.969Z,25.1
2022-12-20T23:28:31.101Z,43.6
2022-12-20T23:33:31.456Z,23
2022-12-20T23:38:33.457Z,21.6
2022-12-20T23:43:35.540Z,22.3
2022-12-20T23:48:37.515Z,20.7
2022-12-20T23:53:39.618Z,22.9
2022-12-20T23:58:42.064Z,20.6
